Portada
METAR-TAF:

METAR-TAF

Aeroports :

Sparta Community Airport (Hunter Field)

Sparta, Illinois, Estats Units d'Amèrica

latitud: 38-08-56N, longitud: 089-41-55W, altitud: 164 m

Observació

L'informe es va fer fa 41 minuts, a les 06:15 UTC
Vent calma
Temperatura 23°C
Humitat 89%
Pressió 1024 hPa
Visibilitat: 16.1 km
Cel clar

METAR: KSAR 200615Z AUTO 00000KT 10SM CLR 23/21 A3025 RMK AO2 T02250213

Hora: 01:56 (06:56 UTC)


TAF: manca

Observacions i pronòstics meteorològics de més de 4000 aeroports (METAR i TAF).

Les estacions disponibles són els punts grocs i vermells al mapa.

Posi el ratolí al punt desitjat per veure el nom de l'estació.

Feu clic per veure les observacions i els pronòstics meteorològics.

Per canviar el mapa: feu clic els botons verds amb una creu de color negre per apropar; al botó verd amb un guió per allunyar la imatge; o en les fletxes verdes per a mapes adjacents.


METAR-TAF: